Prescott, Michigan
Current Conditions -  °F | °C
As of 6:54 PM on Monday 22 Dec 2014 (Local Time) from KOSC Reporting Station
Overcast Overcast  
Wind Chill: 28°   Ceiling: 1900
Heat Index: 33°   Visibility: 10mi
Dew Point: 29°   Wind: 6mph
Humidity: 82%   Direction: 110°ESE
Pressure: 29.98"   Gusts: NA
Location:  44.19°N, 83.93°W
Report Text: KOSC 222354Z AUTO 11005KT 10SM OVC019 01/M02 A2998 RMK AO2 T00081019
Loading
Personal Weather Stations






























Interactive Weather Map New forecast layout! Learn more

10-Day Weather Forecast

Advertisements
Track Severe Weather on mobile